^^
Saratoga-Weather Station Historical Data
Daily Summary for April 28, 2021 Units:  Metric    English   Both
Daily Weekly Monthly Yearly Custom
  High: Low: Average:
Temperature: 25.4 °C 17.4 °C 21.1 °C
Dew Point: 19.2 °C 16.2 °C 17.3 °C
Humidity: 93% 58% 80%
Wind Speed: 14.3km/h 0km/h 2.3km/h
Wind Gust: 19.3km/h - -
Wind- - SW
Pressure: 1013.2 hPa 1011.2 hPa -
Precipitation: 0.0 mm    
Historical Graphs
 
 
Tabular Data for April 28, 2021
Time Temperature Dew Point Pressure Wind Wind Speed Wind Gust Humidity Rainfall Rate (Hourly) solar
00:04 18.8 °C 16.4 °C 1012.9 hPa Calm     86% 0.0 mm 0 W/m2
00:09 18.7 °C 16.3 °C 1012.9 hPa Calm     86% 0.0 mm 0 W/m2
00:14 18.7 °C 16.3 °C 1012.9 hPa Calm     86% 0.0 mm 0 W/m2
00:19 18.6 °C 16.2 °C 1012.9 hPa Calm     86% 0.0 mm 0 W/m2
00:24 18.6 °C 16.4 °C 1012.9 hPa Calm     87% 0.0 mm 0 W/m2
00:29 18.7 °C 16.5 °C 1012.9 hPa Calm     87% 0.0 mm 0 W/m2
00:34 18.7 °C 16.5 °C 1012.9 hPa South 1.4 km/h 1.6 km/h 87% 0.0 mm 0 W/m2
00:39 18.7 °C 16.5 °C 1012.9 hPa Calm     87% 0.0 mm 0 W/m2
00:44 18.7 °C 16.5 °C 1012.9 hPa Calm   1.6 km/h 87% 0.0 mm 0 W/m2
00:49 18.7 °C 16.5 °C 1012.9 hPa Calm     87% 0.0 mm 0 W/m2
00:54 18.6 °C 16.6 °C 1012.9 hPa Calm   1.6 km/h 88% 0.0 mm 0 W/m2
01:00 18.6 °C 16.6 °C 1012.9 hPa Calm     88% 0.0 mm 0 W/m2
01:05 18.6 °C 16.6 °C 1012.5 hPa South 3.2 km/h 3.2 km/h 88% 0.0 mm 0 W/m2
01:10 18.5 °C 16.7 °C 1012.5 hPa Calm   1.6 km/h 89% 0.0 mm 0 W/m2
01:15 18.4 °C 16.6 °C 1012.5 hPa Calm     89% 0.0 mm 0 W/m2
01:20 18.4 °C 16.6 °C 1012.5 hPa Calm     89% 0.0 mm 0 W/m2
01:25 18.4 °C 16.6 °C 1012.5 hPa Calm     89% 0.0 mm 0 W/m2
01:30 18.3 °C 16.5 °C 1012.2 hPa Calm     89% 0.0 mm 0 W/m2
01:35 18.3 °C 16.5 °C 1012.2 hPa Calm     89% 0.0 mm 0 W/m2
01:40 18.3 °C 16.6 °C 1012.2 hPa Calm     90% 0.0 mm 0 W/m2
01:45 18.3 °C 16.6 °C 1012.2 hPa Calm     90% 0.0 mm 0 W/m2
01:50 18.2 °C 16.5 °C 1012.2 hPa Calm     90% 0.0 mm 0 W/m2
01:55 18.2 °C 16.5 °C 1012.2 hPa Calm     90% 0.0 mm 0 W/m2
02:00 18.2 °C 16.5 °C 1012.2 hPa Calm     90% 0.0 mm 0 W/m2
02:05 18.2 °C 16.7 °C 1012.2 hPa Calm     91% 0.0 mm 0 W/m2
02:10 18.2 °C 16.7 °C 1012.2 hPa Calm     91% 0.0 mm 0 W/m2
02:15 18.1 °C 16.6 °C 1012.2 hPa Calm     91% 0.0 mm 0 W/m2
02:20 18.1 °C 16.6 °C 1012.2 hPa Calm     91% 0.0 mm 0 W/m2
02:25 18 °C 16.5 °C 1012.2 hPa Calm     91% 0.0 mm 0 W/m2
02:30 17.9 °C 16.4 °C 1012.5 hPa Calm     91% 0.0 mm 0 W/m2
02:35 17.9 °C 16.4 °C 1012.2 hPa Calm     91% 0.0 mm 0 W/m2
02:40 17.9 °C 16.4 °C 1012.2 hPa Calm     91% 0.0 mm 0 W/m2
02:45 17.8 °C 16.3 °C 1012.2 hPa Calm     91% 0.0 mm 0 W/m2
02:50 17.8 °C 16.3 °C 1012.2 hPa Calm     91% 0.0 mm 0 W/m2
02:55 17.8 °C 16.3 °C 1012.2 hPa Calm     91% 0.0 mm 0 W/m2
03:00 17.8 °C 16.5 °C 1012.2 hPa Calm     92% 0.0 mm 0 W/m2
03:05 17.8 °C 16.5 °C 1012.2 hPa Calm     92% 0.0 mm 0 W/m2
03:10 17.7 °C 16.4 °C 1012.2 hPa Calm     92% 0.0 mm 0 W/m2
03:15 17.7 °C 16.4 °C 1012.2 hPa Calm     92% 0.0 mm 0 W/m2
03:20 17.7 °C 16.4 °C 1012.5 hPa Calm     92% 0.0 mm 0 W/m2
03:25 17.7 °C 16.4 °C 1012.2 hPa Calm     92% 0.0 mm 0 W/m2
03:30 17.7 °C 16.4 °C 1012.2 hPa Calm     92% 0.0 mm 0 W/m2
03:35 17.8 °C 16.5 °C 1012.2 hPa Calm     92% 0.0 mm 0 W/m2
03:40 17.8 °C 16.5 °C 1012.2 hPa Calm     92% 0.0 mm 0 W/m2
03:45 17.8 °C 16.5 °C 1012.2 hPa Calm     92% 0.0 mm 0 W/m2
03:50 17.8 °C 16.5 °C 1012.2 hPa Calm   1.6 km/h 92% 0.0 mm 0 W/m2
03:55 17.8 °C 16.5 °C 1012.2 hPa SW 1.4 km/h 3.2 km/h 92% 0.0 mm 0 W/m2
04:00 17.8 °C 16.5 °C 1012.2 hPa Calm     92% 0.0 mm 0 W/m2
04:05 17.8 °C 16.5 °C 1012.2 hPa Calm   3.2 km/h 92% 0.0 mm 0 W/m2
04:10 17.8 °C 16.5 °C 1012.2 hPa Calm     92% 0.0 mm 0 W/m2
04:15 17.8 °C 16.5 °C 1012.2 hPa Calm     92% 0.0 mm 0 W/m2
04:20 17.8 °C 16.5 °C 1012.2 hPa Calm     92% 0.0 mm 0 W/m2
04:25 17.8 °C 16.5 °C 1011.9 hPa Calm     92% 0.0 mm 0 W/m2
04:30 17.7 °C 16.4 °C 1011.9 hPa Calm     92% 0.0 mm 0 W/m2
04:35 17.7 °C 16.4 °C 1011.9 hPa Calm     92% 0.0 mm 0 W/m2
04:40 17.6 °C 16.3 °C 1011.9 hPa Calm     92% 0.0 mm 0 W/m2
04:45 17.6 °C 16.3 °C 1011.9 hPa Calm     92% 0.0 mm 0 W/m2
04:50 17.5 °C 16.2 °C 1011.9 hPa Calm     92% 0.0 mm 0 W/m2
04:55 17.4 °C 16.3 °C 1011.9 hPa Calm     93% 0.0 mm 0 W/m2
05:00 17.4 °C 16.3 °C 1011.9 hPa Calm     93% 0.0 mm 0 W/m2
05:05 17.4 °C 16.3 °C 1011.9 hPa Calm     93% 0.0 mm 0 W/m2
05:10 17.4 °C 16.3 °C 1011.9 hPa Calm     93% 0.0 mm 0 W/m2
05:15 17.4 °C 16.3 °C 1011.9 hPa Calm     93% 0.0 mm 0 W/m2
05:20 17.4 °C 16.3 °C 1011.9 hPa Calm     93% 0.0 mm 0 W/m2
05:25 17.4 °C 16.3 °C 1011.9 hPa SE 1.4 km/h 3.2 km/h 93% 0.0 mm 0 W/m2
05:30 17.4 °C 16.3 °C 1012.2 hPa Calm     93% 0.0 mm 0 W/m2
05:35 17.4 °C 16.3 °C 1011.9 hPa Calm   1.6 km/h 93% 0.0 mm 0 W/m2
05:40 17.5 °C 16.4 °C 1011.9 hPa Calm     93% 0.0 mm 0 W/m2
05:45 17.5 °C 16.4 °C 1011.9 hPa Calm     93% 0.0 mm 0 W/m2
05:50 17.5 °C 16.4 °C 1011.9 hPa Calm   1.6 km/h 93% 0.0 mm 5 W/m2
05:55 17.5 °C 16.4 °C 1011.9 hPa Calm     93% 0.0 mm 5 W/m2
06:00 17.5 °C 16.4 °C 1011.9 hPa Calm     93% 0.0 mm 7 W/m2
06:05 17.5 °C 16.4 °C 1011.9 hPa Calm     93% 0.0 mm 12 W/m2
06:10 17.5 °C 16.4 °C 1011.9 hPa Calm     93% 0.0 mm 21 W/m2
06:15 17.6 °C 16.5 °C 1011.9 hPa SE 1.4 km/h 3.2 km/h 93% 0.0 mm 30 W/m2
06:20 17.6 °C 16.5 °C 1012.2 hPa Calm   1.6 km/h 93% 0.0 mm 33 W/m2
06:26 17.6 °C 16.5 °C 1012.2 hPa Calm     93% 0.0 mm 32 W/m2
06:31 17.7 °C 16.6 °C 1011.9 hPa Calm     93% 0.0 mm 46 W/m2
06:36 17.7 °C 16.6 °C 1011.9 hPa SE 1.4 km/h 3.2 km/h 93% 0.0 mm 53 W/m2
06:41 17.8 °C 16.7 °C 1012.2 hPa Calm     93% 0.0 mm 56 W/m2
06:46 17.8 °C 16.7 °C 1012.2 hPa Calm     93% 0.0 mm 65 W/m2
06:51 17.9 °C 16.8 °C 1012.5 hPa SE 1.4 km/h 3.2 km/h 93% 0.0 mm 70 W/m2
06:56 18.1 °C 16.9 °C 1012.5 hPa East 1.4 km/h 4.8 km/h 93% 0.0 mm 62 W/m2
07:01 18.2 °C 16.9 °C 1012.2 hPa ENE 3.2 km/h 4.8 km/h 92% 0.0 mm 62 W/m2
07:06 18.3 °C 17 °C 1012.2 hPa ENE 1.4 km/h 3.2 km/h 92% 0.0 mm 69 W/m2
07:11 18.4 °C 17.1 °C 1012.5 hPa Calm   4.8 km/h 92% 0.0 mm 56 W/m2
07:16 18.6 °C 17.3 °C 1012.2 hPa Calm   1.6 km/h 92% 0.0 mm 39 W/m2
07:21 18.6 °C 17.3 °C 1012.2 hPa Calm     92% 0.0 mm 33 W/m2
07:26 18.7 °C 17.4 °C 1011.9 hPa Calm     92% 0.0 mm 39 W/m2
07:31 18.8 °C 17.5 °C 1011.9 hPa ENE 3.2 km/h 3.2 km/h 92% 0.0 mm 37 W/m2
07:36 18.8 °C 17.5 °C 1011.9 hPa ENE 1.4 km/h 4.8 km/h 92% 0.0 mm 40 W/m2
07:41 18.8 °C 17.5 °C 1011.9 hPa Calm     92% 0.0 mm 62 W/m2
07:46 18.8 °C 17.5 °C 1011.9 hPa Calm     92% 0.0 mm 83 W/m2
07:51 18.8 °C 17.5 °C 1011.9 hPa Calm     92% 0.0 mm 79 W/m2
07:56 18.9 °C 17.6 °C 1011.9 hPa Calm   3.2 km/h 92% 0.0 mm 83 W/m2
08:01 18.9 °C 17.6 °C 1011.9 hPa Calm     92% 0.0 mm 84 W/m2
08:06 19 °C 17.7 °C 1011.9 hPa Calm     92% 0.0 mm 100 W/m2
08:11 19.1 °C 17.8 °C 1011.9 hPa Calm     92% 0.0 mm 105 W/m2
08:16 19.2 °C 17.9 °C 1011.9 hPa Calm     92% 0.0 mm 114 W/m2
08:21 19.2 °C 17.7 °C 1012.2 hPa WNW 1.4 km/h 4.8 km/h 91% 0.0 mm 88 W/m2
08:26 19.3 °C 17.6 °C 1012.2 hPa Calm     90% 0.0 mm 104 W/m2
08:31 19.4 °C 17.7 °C 1012.2 hPa NNW 1.4 km/h 4.8 km/h 90% 0.0 mm 128 W/m2
08:36 19.6 °C 17.9 °C 1012.2 hPa NNW 1.4 km/h 4.8 km/h 90% 0.0 mm 148 W/m2
08:41 19.7 °C 17.8 °C 1012.2 hPa Calm   3.2 km/h 89% 0.0 mm 165 W/m2
08:46 19.8 °C 17.9 °C 1012.5 hPa Calm   4.8 km/h 89% 0.0 mm 169 W/m2
08:51 20.1 °C 18 °C 1012.5 hPa North 3.2 km/h 4.8 km/h 88% 0.0 mm 179 W/m2
08:56 20.2 °C 18 °C 1012.5 hPa NNW 1.4 km/h 1.6 km/h 87% 0.0 mm 192 W/m2
09:01 20.4 °C 18 °C 1012.5 hPa West 1.4 km/h 6.4 km/h 86% 0.0 mm 230 W/m2
09:06 20.7 °C 18.1 °C 1012.5 hPa NW 4.7 km/h 11.3 km/h 85% 0.0 mm 265 W/m2
09:11 20.9 °C 18.1 °C 1012.5 hPa WNW 3.2 km/h 6.4 km/h 84% 0.0 mm 213 W/m2
09:16 21.1 °C 17.9 °C 1012.9 hPa WNW 7.9 km/h 8 km/h 82% 0.0 mm 304 W/m2
09:21 21.2 °C 18 °C 1012.9 hPa WNW 4.7 km/h 9.7 km/h 82% 0.0 mm 373 W/m2
09:26 21.3 °C 17.9 °C 1013.2 hPa WNW 6.4 km/h 8 km/h 81% 0.0 mm 237 W/m2
09:31 21.3 °C 17.9 °C 1013.2 hPa West 1.4 km/h 12.9 km/h 81% 0.0 mm 362 W/m2
09:36 21.4 °C 18.2 °C 1013.2 hPa NW 6.4 km/h 9.7 km/h 82% 0.0 mm 274 W/m2
09:41 21.5 °C 18.1 °C 1013.2 hPa WNW 3.2 km/h 4.8 km/h 81% 0.0 mm 468 W/m2
09:46 21.6 °C 18.2 °C 1013.2 hPa WSW 1.4 km/h 9.7 km/h 81% 0.0 mm 244 W/m2
09:52 21.8 °C 18 °C 1013.2 hPa SSW 4.7 km/h 8 km/h 79% 0.0 mm 311 W/m2
09:57 21.9 °C 18.1 °C 1013.2 hPa West 4.7 km/h 11.3 km/h 79% 0.0 mm 343 W/m2
10:02 21.8 °C 17.6 °C 1013.2 hPa West 9.7 km/h 19.3 km/h 77% 0.0 mm 480 W/m2
10:07 21.8 °C 17.8 °C 1013.2 hPa NW 3.2 km/h 6.4 km/h 78% 0.0 mm 364 W/m2
10:12 22 °C 18 °C 1013.2 hPa WNW 11.1 km/h 19.3 km/h 78% 0.0 mm 301 W/m2
10:17 21.9 °C 17.7 °C 1013.2 hPa NE 3.2 km/h 9.7 km/h 77% 0.0 mm 271 W/m2
10:22 21.8 °C 17.8 °C 1013.2 hPa West 3.2 km/h 4.8 km/h 78% 0.0 mm 229 W/m2
10:27 21.8 °C 17.8 °C 1013.2 hPa NNW 1.4 km/h 4.8 km/h 78% 0.0 mm 218 W/m2
10:32 21.9 °C 17.9 °C 1012.9 hPa NW 4.7 km/h 6.4 km/h 78% 0.0 mm 251 W/m2
10:37 22.2 °C 18 °C 1012.9 hPa NW 4.7 km/h 9.7 km/h 77% 0.0 mm 680 W/m2
10:42 22.4 °C 18.2 °C 1012.9 hPa West 4.7 km/h 4.8 km/h 77% 0.0 mm 680 W/m2
10:47 22.4 °C 18 °C 1012.9 hPa Calm   8 km/h 76% 0.0 mm 601 W/m2
10:52 22.6 °C 17.9 °C 1012.9 hPa ESE 1.4 km/h 3.2 km/h 75% 0.0 mm 475 W/m2
10:57 22.8 °C 18.6 °C 1012.9 hPa SW 1.4 km/h 3.2 km/h 77% 0.0 mm 461 W/m2
11:02 23.1 °C 18.2 °C 1012.9 hPa WSW 3.2 km/h 11.3 km/h 74% 0.0 mm 559 W/m2
11:07 23.2 °C 18.1 °C 1012.9 hPa NE 1.4 km/h 8 km/h 73% 0.0 mm 705 W/m2
11:12 23.3 °C 18.4 °C 1012.9 hPa NE 1.4 km/h 11.3 km/h 74% 0.0 mm 817 W/m2
11:17 23.2 °C 18.1 °C 1012.9 hPa WSW 3.2 km/h 4.8 km/h 73% 0.0 mm 877 W/m2
11:22 22.9 °C 18 °C 1012.9 hPa West 1.4 km/h 9.7 km/h 74% 0.0 mm 427 W/m2
11:27 23 °C 18.1 °C 1012.9 hPa ENE 3.2 km/h 6.4 km/h 74% 0.0 mm 264 W/m2
11:32 23.2 °C 18.3 °C 1012.9 hPa WSW 6.4 km/h 9.7 km/h 74% 0.0 mm 819 W/m2
11:37 23.3 °C 18 °C 1012.9 hPa NNW 3.2 km/h 6.4 km/h 72% 0.0 mm 329 W/m2
11:42 23.3 °C 18.4 °C 1012.5 hPa ENE 3.2 km/h 6.4 km/h 74% 0.0 mm 443 W/m2
11:47 23.6 °C 18.5 °C 1012.5 hPa NNW 6.4 km/h 6.4 km/h 73% 0.0 mm 967 W/m2
11:52 23.7 °C 18.6 °C 1012.5 hPa North 1.4 km/h 9.7 km/h 73% 0.0 mm 262 W/m2
11:57 24.1 °C 18.7 °C 1012.5 hPa Calm   11.3 km/h 72% 0.0 mm 830 W/m2
12:02 24.3 °C 18.7 °C 1012.5 hPa NNW 3.2 km/h 3.2 km/h 71% 0.0 mm 853 W/m2
12:07 24.6 °C 18.8 °C 1012.5 hPa WNW 4.7 km/h 12.9 km/h 70% 0.0 mm 907 W/m2
12:12 24.6 °C 18.8 °C 1012.5 hPa West 6.4 km/h 12.9 km/h 70% 0.0 mm 348 W/m2
12:17 24.3 °C 18.7 °C 1012.5 hPa North 1.4 km/h 11.3 km/h 71% 0.0 mm 798 W/m2
12:22 24.2 °C 18.6 °C 1012.5 hPa Calm   12.9 km/h 71% 0.0 mm 798 W/m2
12:27 24.2 °C 18.8 °C 1012.9 hPa WNW 4.7 km/h 16.1 km/h 72% 0.0 mm 1004 W/m2
12:32 24.2 °C 18.6 °C 1012.9 hPa NW 7.9 km/h 14.5 km/h 71% 0.0 mm 912 W/m2
12:37 24.1 °C 18.7 °C 1012.5 hPa WNW 6.4 km/h 9.7 km/h 72% 0.0 mm 967 W/m2
12:42 24.4 °C 18.8 °C 1012.9 hPa West 9.7 km/h 14.5 km/h 71% 0.0 mm 1039 W/m2
12:47 24.7 °C 18.6 °C 1012.9 hPa WNW 3.2 km/h 6.4 km/h 69% 0.0 mm 367 W/m2
12:52 24.7 °C 18.4 °C 1012.5 hPa NE 1.4 km/h 8 km/h 68% 0.0 mm 946 W/m2
12:57 24.9 °C 18.6 °C 1012.9 hPa West 6.4 km/h 12.9 km/h 68% 0.0 mm 925 W/m2
13:02 25 °C 18.4 °C 1012.9 hPa West 13 km/h 14.5 km/h 67% 0.0 mm 940 W/m2
13:07 24.6 °C 18.3 °C 1012.9 hPa NW 11.1 km/h 14.5 km/h 68% 0.0 mm 1044 W/m2
13:12 24.6 °C 18.3 °C 1012.9 hPa NW 14.3 km/h 19.3 km/h 68% 0.0 mm 1014 W/m2
13:17 24.6 °C 17.8 °C 1012.9 hPa WNW 3.2 km/h 12.9 km/h 66% 0.0 mm 1030 W/m2
13:22 24.8 °C 18 °C 1012.9 hPa WNW 4.7 km/h 19.3 km/h 66% 0.0 mm 863 W/m2
13:27 25.1 °C 18.3 °C 1012.9 hPa NNW 1.4 km/h 6.4 km/h 66% 0.0 mm 851 W/m2
13:32 25.3 °C 18.2 °C 1012.9 hPa NE 3.2 km/h 6.4 km/h 65% 0.0 mm 816 W/m2
13:37 25.3 °C 18 °C 1012.5 hPa WNW 1.4 km/h 11.3 km/h 64% 0.0 mm 564 W/m2
13:42 25.3 °C 18.2 °C 1012.9 hPa Calm   8 km/h 65% 0.0 mm 798 W/m2
13:47 25.4 °C 17.8 °C 1012.9 hPa WSW 4.7 km/h 11.3 km/h 63% 0.0 mm 745 W/m2
13:52 25.3 °C 17.7 °C 1012.9 hPa WNW 11.1 km/h 12.9 km/h 63% 0.0 mm 650 W/m2
13:57 25.2 °C 17.7 °C 1012.5 hPa WSW 4.7 km/h 11.3 km/h 63% 0.0 mm 599 W/m2
14:02 25.2 °C 17.4 °C 1012.5 hPa South 1.4 km/h 6.4 km/h 62% 0.0 mm 680 W/m2
14:07 25.3 °C 17.5 °C 1012.9 hPa WNW 3.2 km/h 11.3 km/h 62% 0.0 mm 622 W/m2
14:12 25.4 °C 17.8 °C 1012.9 hPa West 4.7 km/h 12.9 km/h 63% 0.0 mm 534 W/m2
14:17 25.4 °C 17.3 °C 1012.9 hPa West 4.7 km/h 9.7 km/h 61% 0.0 mm 554 W/m2
14:22 25.3 °C 17.7 °C 1012.9 hPa WNW 3.2 km/h 11.3 km/h 63% 0.0 mm 740 W/m2
14:27 25.2 °C 18.2 °C 1012.9 hPa NW 6.4 km/h 12.9 km/h 65% 0.0 mm 682 W/m2
14:32 25.2 °C 17.9 °C 1012.9 hPa NW 3.2 km/h 4.8 km/h 64% 0.0 mm 548 W/m2
14:37 25.1 °C 18.1 °C 1012.9 hPa West 9.7 km/h 12.9 km/h 65% 0.0 mm 503 W/m2
14:42 24.9 °C 17.9 °C 1012.9 hPa WNW 7.9 km/h 16.1 km/h 65% 0.0 mm 483 W/m2
14:47 24.7 °C 18.2 °C 1012.9 hPa WNW 4.7 km/h 6.4 km/h 67% 0.0 mm 387 W/m2
14:52 24.8 °C 18 °C 1012.9 hPa WSW 6.4 km/h 16.1 km/h 66% 0.0 mm 397 W/m2
14:57 24.6 °C 17.8 °C 1012.9 hPa WSW 1.4 km/h 12.9 km/h 66% 0.0 mm 427 W/m2
15:02 24.5 °C 17.5 °C 1012.9 hPa WNW 6.4 km/h 17.7 km/h 65% 0.0 mm 422 W/m2
15:07 24.4 °C 17.9 °C 1012.9 hPa WNW 4.7 km/h 12.9 km/h 67% 0.0 mm 418 W/m2
15:12 24.4 °C 17.6 °C 1012.9 hPa WNW 3.2 km/h 17.7 km/h 66% 0.0 mm 408 W/m2
15:17 24.4 °C 17.6 °C 1012.9 hPa WNW 4.7 km/h 14.5 km/h 66% 0.0 mm 513 W/m2
15:22 24.3 °C 17.3 °C 1012.9 hPa WNW 3.2 km/h 16.1 km/h 65% 0.0 mm 466 W/m2
15:27 24.5 °C 17.7 °C 1012.9 hPa WNW 7.9 km/h 11.3 km/h 66% 0.0 mm 508 W/m2
15:32 24.6 °C 17.6 °C 1012.9 hPa WNW 11.1 km/h 19.3 km/h 65% 0.0 mm 376 W/m2
15:37 24.6 °C 17.6 °C 1012.9 hPa NW 3.2 km/h 9.7 km/h 65% 0.0 mm 396 W/m2
15:42 24.7 °C 17.4 °C 1012.9 hPa SW 4.7 km/h 19.3 km/h 64% 0.0 mm 364 W/m2
15:47 24.8 °C 17.3 °C 1012.9 hPa WNW 9.7 km/h 12.9 km/h 63% 0.0 mm 399 W/m2
15:52 24.8 °C 16.8 °C 1012.9 hPa NNW 6.4 km/h 14.5 km/h 61% 0.0 mm 332 W/m2
15:57 24.7 °C 16.7 °C 1012.9 hPa West 9.7 km/h 11.3 km/h 61% 0.0 mm 332 W/m2
16:02 24.7 °C 16.9 °C 1012.9 hPa SW 4.7 km/h 11.3 km/h 62% 0.0 mm 408 W/m2
16:07 24.8 °C 16.8 °C 1012.5 hPa SW 3.2 km/h 4.8 km/h 61% 0.0 mm 392 W/m2
16:12 25.1 °C 17 °C 1012.5 hPa West 4.7 km/h 4.8 km/h 61% 0.0 mm 439 W/m2
16:17 25.1 °C 16.3 °C 1012.5 hPa WSW 6.4 km/h 11.3 km/h 58% 0.0 mm 434 W/m2
16:22 25.1 °C 16.3 °C 1012.5 hPa West 6.4 km/h 9.7 km/h 58% 0.0 mm 441 W/m2
16:27 25.2 °C 16.3 °C 1012.5 hPa NW 4.7 km/h 12.9 km/h 58% 0.0 mm 420 W/m2
16:32 25.1 °C 16.5 °C 1012.5 hPa WNW 9.7 km/h 12.9 km/h 59% 0.0 mm 357 W/m2
16:37 25 °C 17 °C 1012.5 hPa WNW 4.7 km/h 6.4 km/h 61% 0.0 mm 380 W/m2
16:42 25.1 °C 17 °C 1012.5 hPa WNW 6.4 km/h 12.9 km/h 61% 0.0 mm 403 W/m2
16:47 25 °C 16.4 °C 1012.9 hPa SSW 3.2 km/h 8 km/h 59% 0.0 mm 290 W/m2
16:52 24.9 °C 17.1 °C 1012.9 hPa West 3.2 km/h 6.4 km/h 62% 0.0 mm 269 W/m2
16:57 24.9 °C 16.6 °C 1012.9 hPa WSW 4.7 km/h 6.4 km/h 60% 0.0 mm 292 W/m2
17:02 24.8 °C 16.8 °C 1012.5 hPa WNW 6.4 km/h 6.4 km/h 61% 0.0 mm 234 W/m2
17:07 24.7 °C 16.4 °C 1012.5 hPa WNW 6.4 km/h 9.7 km/h 60% 0.0 mm 221 W/m2
17:12 24.6 °C 16.8 °C 1012.9 hPa West 3.2 km/h 6.4 km/h 62% 0.0 mm 246 W/m2
17:17 24.6 °C 16.8 °C 1012.5 hPa West 3.2 km/h 3.2 km/h 62% 0.0 mm 279 W/m2
17:22 24.7 °C 16.4 °C 1012.5 hPa West 3.2 km/h 4.8 km/h 60% 0.0 mm 320 W/m2
17:27 24.8 °C 16.2 °C 1012.5 hPa NW 1.4 km/h 3.2 km/h 59% 0.0 mm 403 W/m2
17:32 25 °C 16.7 °C 1012.5 hPa WSW 4.7 km/h 6.4 km/h 60% 0.0 mm 350 W/m2
17:37 24.9 °C 16.6 °C 1012.5 hPa NW 3.2 km/h 6.4 km/h 60% 0.0 mm 403 W/m2
17:42 25 °C 16.7 °C 1012.2 hPa West 1.4 km/h 8 km/h 60% 0.0 mm 366 W/m2
17:47 25.1 °C 17 °C 1012.2 hPa NW 3.2 km/h 3.2 km/h 61% 0.0 mm 362 W/m2
17:52 25.1 °C 17 °C 1012.2 hPa WSW 3.2 km/h 6.4 km/h 61% 0.0 mm 308 W/m2
17:57 25.1 °C 17.3 °C 1012.2 hPa WSW 1.4 km/h 3.2 km/h 62% 0.0 mm 246 W/m2
18:02 25.2 °C 17.7 °C 1012.2 hPa Calm   6.4 km/h 63% 0.0 mm 204 W/m2
18:07 25.2 °C 17.4 °C 1012.2 hPa Calm   3.2 km/h 62% 0.0 mm 169 W/m2
18:12 25.1 °C 17.6 °C 1011.9 hPa East 1.4 km/h 1.6 km/h 63% 0.0 mm 121 W/m2
18:17 24.9 °C 17.1 °C 1011.9 hPa WNW 1.4 km/h 4.8 km/h 62% 0.0 mm 109 W/m2
18:22 24.7 °C 17.7 °C 1011.9 hPa West 1.4 km/h 4.8 km/h 65% 0.0 mm 130 W/m2
18:27 24.6 °C 18.1 °C 1011.9 hPa NNW 1.4 km/h 1.6 km/h 67% 0.0 mm 158 W/m2
18:32 24.5 °C 18.4 °C 1011.9 hPa ENE 1.4 km/h 3.2 km/h 69% 0.0 mm 169 W/m2
18:37 24.3 °C 18.5 °C 1011.9 hPa West 3.2 km/h 3.2 km/h 70% 0.0 mm 174 W/m2
18:42 24.1 °C 18.7 °C 1011.5 hPa ESE 4.7 km/h 6.4 km/h 72% 0.0 mm 155 W/m2
18:47 24 °C 18.6 °C 1011.5 hPa Calm   1.6 km/h 72% 0.0 mm 202 W/m2
18:52 24.1 °C 19 °C 1011.9 hPa Calm   6.4 km/h 73% 0.0 mm 190 W/m2
18:57 24.1 °C 19 °C 1011.5 hPa Calm     73% 0.0 mm 134 W/m2
19:02 24.1 °C 19 °C 1011.5 hPa ESE 3.2 km/h 3.2 km/h 73% 0.0 mm 135 W/m2
19:07 24.1 °C 19 °C 1011.2 hPa Calm     73% 0.0 mm 114 W/m2
19:12 24 °C 18.4 °C 1011.2 hPa Calm     71% 0.0 mm 93 W/m2
19:17 24.1 °C 19 °C 1011.5 hPa Calm     73% 0.0 mm 69 W/m2
19:22 24.1 °C 19.2 °C 1011.5 hPa Calm     74% 0.0 mm 67 W/m2
19:27 24 °C 19.1 °C 1011.9 hPa Calm     74% 0.0 mm 69 W/m2
19:32 23.9 °C 19 °C 1011.9 hPa East 4.7 km/h 6.4 km/h 74% 0.0 mm 60 W/m2
19:37 23.7 °C 18.6 °C 1011.9 hPa East 4.7 km/h 6.4 km/h 73% 0.0 mm 58 W/m2
19:42 23.3 °C 18.2 °C 1011.9 hPa SE 7.9 km/h 8 km/h 73% 0.0 mm 65 W/m2
19:47 22.9 °C 17.8 °C 1011.9 hPa SE 4.7 km/h 12.9 km/h 73% 0.0 mm 67 W/m2
19:52 22.4 °C 17.7 °C 1011.9 hPa East 3.2 km/h 9.7 km/h 75% 0.0 mm 81 W/m2
19:57 22.1 °C 17.7 °C 1011.5 hPa East 9.7 km/h 9.7 km/h 76% 0.0 mm 86 W/m2
20:03 21.8 °C 17.8 °C 1011.5 hPa ESE 1.4 km/h 4.8 km/h 78% 0.0 mm 74 W/m2
20:08 21.7 °C 17.9 °C 1011.5 hPa ESE 6.4 km/h 9.7 km/h 79% 0.0 mm 62 W/m2
20:13 21.6 °C 17.8 °C 1011.5 hPa East 3.2 km/h 4.8 km/h 79% 0.0 mm 49 W/m2
20:18 21.5 °C 17.9 °C 1011.9 hPa ESE 3.2 km/h 9.7 km/h 80% 0.0 mm 46 W/m2
20:23 21.4 °C 17.8 °C 1011.9 hPa ESE 3.2 km/h 6.4 km/h 80% 0.0 mm 33 W/m2
20:28 21.3 °C 17.7 °C 1011.9 hPa ENE 3.2 km/h 9.7 km/h 80% 0.0 mm 26 W/m2
20:33 21.2 °C 17.4 °C 1011.9 hPa ENE 6.4 km/h 11.3 km/h 79% 0.0 mm 21 W/m2
20:38 21 °C 17.2 °C 1011.9 hPa SE 4.7 km/h 9.7 km/h 79% 0.0 mm 23 W/m2
20:43 20.9 °C 17.3 °C 1011.9 hPa NNE 4.7 km/h 4.8 km/h 80% 0.0 mm 23 W/m2
20:48 20.8 °C 17.2 °C 1011.9 hPa ESE 4.7 km/h 9.7 km/h 80% 0.0 mm 23 W/m2
20:53 20.7 °C 17.3 °C 1011.5 hPa Calm   9.7 km/h 81% 0.0 mm 21 W/m2
20:58 20.6 °C 17.2 °C 1011.5 hPa ESE 1.4 km/h 4.8 km/h 81% 0.0 mm 14 W/m2
21:03 20.6 °C 17.4 °C 1011.5 hPa ENE 3.2 km/h 9.7 km/h 82% 0.0 mm 11 W/m2
21:08 20.4 °C 17.2 °C 1011.5 hPa ESE 4.7 km/h 4.8 km/h 82% 0.0 mm 12 W/m2
21:13 20.4 °C 17.2 °C 1011.5 hPa ESE 1.4 km/h 3.2 km/h 82% 0.0 mm 9 W/m2
21:18 20.3 °C 17.1 °C 1011.5 hPa ESE 1.4 km/h 4.8 km/h 82% 0.0 mm 7 W/m2
21:23 20.3 °C 17.1 °C 1011.9 hPa ESE 1.4 km/h 3.2 km/h 82% 0.0 mm 5 W/m2
21:28 20.2 °C 17 °C 1011.9 hPa Calm   1.6 km/h 82% 0.0 mm 0 W/m2
21:33 20.2 °C 17.2 °C 1011.9 hPa Calm     83% 0.0 mm 0 W/m2
21:38 20.1 °C 17.1 °C 1011.5 hPa Calm   1.6 km/h 83% 0.0 mm 0 W/m2
21:43 20.1 °C 17.1 °C 1011.9 hPa Calm   1.6 km/h 83% 0.0 mm 0 W/m2
21:48 20 °C 17 °C 1012.2 hPa WNW 1.4 km/h 6.4 km/h 83% 0.0 mm 0 W/m2
21:53 19.9 °C 16.9 °C 1012.2 hPa ENE 3.2 km/h 6.4 km/h 83% 0.0 mm 0 W/m2
21:58 19.9 °C 16.7 °C 1011.9 hPa ENE 3.2 km/h 4.8 km/h 82% 0.0 mm 0 W/m2
22:03 19.9 °C 16.7 °C 1011.9 hPa East 1.4 km/h 1.6 km/h 82% 0.0 mm 0 W/m2
22:08 19.9 °C 16.7 °C 1011.9 hPa East 1.4 km/h 1.6 km/h 82% 0.0 mm 0 W/m2
22:13 19.9 °C 16.7 °C 1012.2 hPa Calm   1.6 km/h 82% 0.0 mm 0 W/m2
22:18 19.8 °C 16.8 °C 1012.5 hPa Calm     83% 0.0 mm 0 W/m2
22:23 19.8 °C 16.8 °C 1012.2 hPa NE 1.4 km/h 3.2 km/h 83% 0.0 mm 0 W/m2
22:28 19.7 °C 16.5 °C 1012.2 hPa Calm   1.6 km/h 82% 0.0 mm 0 W/m2
22:33 19.7 °C 16.7 °C 1012.5 hPa Calm     83% 0.0 mm 0 W/m2
22:38 19.6 °C 16.6 °C 1012.2 hPa Calm     83% 0.0 mm 0 W/m2
22:43 19.5 °C 16.5 °C 1012.5 hPa Calm     83% 0.0 mm 0 W/m2
22:48 19.3 °C 16.5 °C 1012.5 hPa Calm     84% 0.0 mm 0 W/m2
22:53 19.2 °C 16.4 °C 1012.9 hPa Calm     84% 0.0 mm 0 W/m2
22:58 19.1 °C 16.5 °C 1012.9 hPa Calm     85% 0.0 mm 0 W/m2
23:03 19 °C 16.4 °C 1012.9 hPa Calm     85% 0.0 mm 0 W/m2
23:08 18.9 °C 16.3 °C 1012.9 hPa ENE 1.4 km/h 1.6 km/h 85% 0.0 mm 0 W/m2
23:13 18.8 °C 16.4 °C 1012.9 hPa Calm   1.6 km/h 86% 0.0 mm 0 W/m2
23:18 18.8 °C 16.4 °C 1012.9 hPa Calm     86% 0.0 mm 0 W/m2
23:23 18.7 °C 16.5 °C 1012.9 hPa Calm   1.6 km/h 87% 0.0 mm 0 W/m2
23:28 18.7 °C 16.5 °C 1012.9 hPa Calm     87% 0.0 mm 0 W/m2
23:33 18.6 °C 16.4 °C 1012.9 hPa Calm     87% 0.0 mm 0 W/m2
23:38 18.6 °C 16.4 °C 1012.9 hPa Calm     87% 0.0 mm 0 W/m2
23:43 18.5 °C 16.3 °C 1012.9 hPa Calm     87% 0.0 mm 0 W/m2
23:48 18.4 °C 16.4 °C 1012.9 hPa Calm   1.6 km/h 88% 0.0 mm 0 W/m2
23:53 18.4 °C 16.4 °C 1012.5 hPa Calm     88% 0.0 mm 0 W/m2
23:58 18.3 °C 16.3 °C 1012.9 hPa Calm   1.6 km/h 88% 0.0 mm 0 W/m2
Juneau County Weather
Compliments of Weather Underground - 4 mb